Terminal Aerodrome Forecast
Issued by NWS

Home | Current Version | Previous Version | Graphics & Text | Print | Product List | Glossary On
Versions: 1 2 3 4 5 6 7 8 9 10 11 12 13 14 15 16
407
FTUS43 KMPX 260520
TAFAXN
TAF
KAXN 260520Z 2606/2706 02014G22KT 6SM -RA BR OVC009
     FM261100 01015G23KT 3SM -RASN BR OVC008
     FM261700 36014G24KT P6SM VCSH OVC008
     FM262100 34014KT P6SM OVC010=

USA.gov is the U.S. government's official web portal to all federal, state and local government web resources and services.